createdAt,value
2023-03-01T02:06:44.226Z,1005.64
2023-03-01T02:08:17.406Z,1005.60
2023-03-01T02:09:17.361Z,1005.61
2023-03-01T02:10:17.395Z,1005.53
2023-03-01T02:11:17.362Z,1005.60
2023-03-01T02:12:17.380Z,1005.52
2023-03-01T02:13:17.343Z,1005.47
2023-03-01T02:14:17.398Z,1005.50
2023-03-01T02:15:17.323Z,1005.48
2023-03-01T02:16:17.499Z,1005.45
2023-03-01T02:17:17.303Z,1005.38
2023-03-01T02:18:18.492Z,1005.40
2023-03-01T02:19:18.442Z,1005.37
2023-03-01T02:20:18.420Z,1005.39
2023-03-01T02:21:18.448Z,1005.37
2023-03-01T02:22:19.254Z,1005.37
2023-03-01T02:23:18.404Z,1005.39
2023-03-01T02:24:20.226Z,1005.40
2023-03-01T02:25:19.414Z,1005.40
2023-03-01T02:26:18.386Z,1005.39
2023-03-01T02:27:18.372Z,1005.39
2023-03-01T02:28:18.420Z,1005.38
2023-03-01T02:29:18.436Z,1005.42
2023-03-01T02:30:18.385Z,1005.50
2023-03-01T02:31:18.384Z,1005.50
2023-03-01T02:32:18.390Z,1005.52
2023-03-01T02:33:18.346Z,1005.54
2023-03-01T02:34:18.349Z,1005.50
2023-03-01T02:35:18.383Z,1005.50
2023-03-01T02:36:18.330Z,1005.54
2023-03-01T02:37:18.350Z,1005.54
2023-03-01T02:38:18.391Z,1005.47
2023-03-01T02:39:18.328Z,1005.58
2023-03-01T02:40:18.421Z,1005.56
2023-03-01T02:41:18.291Z,1005.56
2023-03-01T02:42:18.294Z,1005.64
2023-03-01T02:43:18.302Z,1005.59
2023-03-01T02:44:18.337Z,1005.56
2023-03-01T02:45:18.297Z,1005.59
2023-03-01T02:46:18.384Z,1005.62
2023-03-01T02:47:18.261Z,1005.63
2023-03-01T02:48:18.264Z,1005.58
2023-03-01T02:49:18.241Z,1005.58
2023-03-01T02:50:18.282Z,1005.55
2023-03-01T02:51:18.283Z,1005.50
2023-03-01T02:52:18.226Z,1005.51
2023-03-01T02:53:18.234Z,1005.49
2023-03-01T02:54:18.194Z,1005.47
2023-03-01T02:55:18.246Z,1005.47
2023-03-01T02:56:18.218Z,1005.41
2023-03-01T02:57:18.207Z,1005.42
2023-03-01T02:58:18.207Z,1005.33
2023-03-01T02:59:18.185Z,1005.35
2023-03-01T03:00:18.183Z,1005.35
2023-03-01T03:01:18.251Z,1005.33
2023-03-01T03:02:18.186Z,1005.25
2023-03-01T03:03:18.154Z,1005.24
2023-03-01T03:04:18.172Z,1005.21
2023-03-01T03:05:18.194Z,1005.22
2023-03-01T03:06:18.120Z,1005.23
2023-03-01T03:07:18.135Z,1005.17
2023-03-01T03:08:18.153Z,1005.17
2023-03-01T03:09:18.097Z,1005.16
2023-03-01T03:10:18.138Z,1005.22
2023-03-01T03:11:18.107Z,1005.22
2023-03-01T03:12:18.120Z,1005.23
2023-03-01T03:13:18.075Z,1005.18
2023-03-01T03:14:18.102Z,1005.17
2023-03-01T03:15:18.070Z,1005.14
2023-03-01T03:16:18.162Z,1005.14
2023-03-01T03:17:18.041Z,1005.14
2023-03-01T03:18:18.051Z,1005.14
2023-03-01T03:19:18.071Z,1005.19
2023-03-01T03:20:18.078Z,1005.21
2023-03-01T03:21:18.038Z,1005.13
2023-03-01T03:22:18.068Z,1005.18
2023-03-01T03:23:18.047Z,1005.14
2023-03-01T03:24:18.012Z,1005.14
2023-03-01T03:25:18.030Z,1005.08
2023-03-01T03:26:18.073Z,1005.10
2023-03-01T03:27:18.014Z,1005.16
2023-03-01T03:28:18.000Z,1005.14
2023-03-01T03:29:17.977Z,1005.16
2023-03-01T03:30:17.995Z,1005.16
2023-03-01T03:31:17.981Z,1005.05
2023-03-01T03:32:17.975Z,1005.11
2023-03-01T03:33:17.951Z,1005.09
2023-03-01T03:34:17.975Z,1005.09
2023-03-01T03:35:17.961Z,1005.11
2023-03-01T03:36:17.967Z,1005.10
2023-03-01T03:37:17.929Z,1005.11
2023-03-01T03:38:17.983Z,1005.13
2023-03-01T03:39:20.578Z,1005.15
2023-03-01T03:40:17.917Z,1005.13
2023-03-01T03:41:17.918Z,1005.16
2023-03-01T03:42:17.903Z,1005.21
2023-03-01T03:43:17.918Z,1005.14
2023-03-01T03:44:17.886Z,1005.11
2023-03-01T03:45:17.885Z,1005.11
2023-03-01T03:46:17.871Z,1005.12
2023-03-01T03:47:18.068Z,1005.05
2023-03-01T03:48:17.848Z,1005.04
2023-03-01T03:49:17.851Z,1004.98
2023-03-01T03:50:17.861Z,1005.00
2023-03-01T03:51:17.836Z,1004.91
2023-03-01T03:52:17.824Z,1004.88
2023-03-01T03:53:17.853Z,1004.82
2023-03-01T03:54:17.818Z,1004.81
2023-03-01T03:55:17.842Z,1004.80
2023-03-01T03:56:17.820Z,1004.82
2023-03-01T03:57:17.967Z,1004.80
2023-03-01T03:58:17.813Z,1004.80
2023-03-01T03:59:17.767Z,1004.81
2023-03-01T04:00:17.827Z,1004.80
2023-03-01T04:01:17.810Z,1004.79
2023-03-01T04:02:17.786Z,1004.79
2023-03-01T04:03:17.761Z,1004.75
2023-03-01T04:04:17.740Z,1004.81
2023-03-01T04:05:17.748Z,1004.75
2023-03-01T04:06:17.768Z,1004.77
2023-03-01T04:07:17.749Z,1004.79
2023-03-01T04:08:17.715Z,1004.81
2023-03-01T04:09:17.704Z,1004.82
2023-03-01T04:10:18.247Z,1004.83
2023-03-01T04:11:17.707Z,1004.71
2023-03-01T04:12:17.688Z,1004.77
2023-03-01T04:13:17.717Z,1004.77
2023-03-01T04:14:17.666Z,1004.69
2023-03-01T04:15:17.699Z,1004.72
2023-03-01T04:16:17.734Z,1004.80
2023-03-01T04:17:17.689Z,1004.79
2023-03-01T04:18:17.638Z,1004.77
2023-03-01T04:19:17.641Z,1004.69
2023-03-01T04:20:17.679Z,1004.79
2023-03-01T04:21:17.641Z,1004.69
2023-03-01T04:22:17.631Z,1004.74
2023-03-01T04:23:18.611Z,1004.71
2023-03-01T04:24:17.601Z,1004.77
2023-03-01T04:25:17.630Z,1004.66
2023-03-01T04:26:17.606Z,1004.68
2023-03-01T04:27:17.625Z,1004.71
2023-03-01T04:28:17.620Z,1004.66
2023-03-01T04:29:17.581Z,1004.67
2023-03-01T04:30:17.602Z,1004.70
2023-03-01T04:31:17.707Z,1004.69
2023-03-01T04:32:17.738Z,1004.71
2023-03-01T04:33:17.565Z,1004.79
2023-03-01T04:34:17.538Z,1004.72
2023-03-01T04:35:17.562Z,1004.74
2023-03-01T04:36:17.672Z,1004.76
2023-03-01T04:37:17.529Z,1004.74
2023-03-01T04:38:17.528Z,1004.70
2023-03-01T04:39:17.502Z,1004.79
2023-03-01T04:40:17.533Z,1004.79
2023-03-01T04:41:17.498Z,1004.75
2023-03-01T04:42:17.503Z,1004.76
2023-03-01T04:43:17.653Z,1004.71
2023-03-01T04:44:17.564Z,1004.73
2023-03-01T04:45:17.637Z,1004.69
2023-03-01T04:46:17.540Z,1004.71
2023-03-01T04:47:17.478Z,1004.78
2023-03-01T04:48:17.459Z,1004.69
2023-03-01T04:49:17.459Z,1004.70
2023-03-01T04:50:17.452Z,1004.69
2023-03-01T04:51:17.460Z,1004.75
2023-03-01T04:52:17.444Z,1004.71
2023-03-01T04:53:17.644Z,1004.75
2023-03-01T04:54:17.431Z,1004.85
2023-03-01T04:55:17.433Z,1004.71
2023-03-01T04:56:17.419Z,1004.82
2023-03-01T04:57:17.415Z,1004.82
2023-03-01T04:58:18.216Z,1004.89
2023-03-01T04:59:17.377Z,1004.80
2023-03-01T05:00:17.427Z,1004.76
2023-03-01T05:01:18.100Z,1004.75
2023-03-01T05:02:17.386Z,1004.77
2023-03-01T05:03:17.371Z,1004.67
2023-03-01T05:04:17.410Z,1004.67
2023-03-01T05:05:17.372Z,1004.63
2023-03-01T05:06:17.366Z,1004.73
2023-03-01T05:07:17.344Z,1004.66
2023-03-01T05:08:17.329Z,1004.63
2023-03-01T05:09:17.320Z,1004.73
2023-03-01T05:10:17.295Z,1004.74
2023-03-01T05:11:17.318Z,1004.63
2023-03-01T05:12:17.319Z,1004.58
2023-03-01T05:13:17.285Z,1004.58
2023-03-01T05:14:17.289Z,1004.66
2023-03-01T05:15:17.306Z,1004.67
2023-03-01T05:16:17.350Z,1004.71
2023-03-01T05:17:17.257Z,1004.65
2023-03-01T05:18:17.283Z,1004.65
2023-03-01T05:19:17.262Z,1004.69
2023-03-01T05:20:17.249Z,1004.61
2023-03-01T05:21:17.538Z,1004.57
2023-03-01T05:22:17.235Z,1004.53
2023-03-01T05:23:17.253Z,1004.48
2023-03-01T05:24:17.254Z,1004.50
2023-03-01T05:25:17.245Z,1004.57
2023-03-01T05:26:27.887Z,1004.53
2023-03-01T05:27:19.277Z,1004.51
2023-03-01T05:28:17.305Z,1004.51
2023-03-01T05:29:17.234Z,1004.56
2023-03-01T05:30:17.211Z,1004.52
2023-03-01T05:31:17.268Z,1004.53
2023-03-01T05:32:17.315Z,1004.56
2023-03-01T05:33:17.196Z,1004.57
2023-03-01T05:34:17.169Z,1004.56
2023-03-01T05:35:17.211Z,1004.60
2023-03-01T05:36:17.181Z,1004.64
2023-03-01T05:37:17.188Z,1004.61
2023-03-01T05:38:17.230Z,1004.56
2023-03-01T05:39:17.168Z,1004.53
2023-03-01T05:40:17.172Z,1004.52
2023-03-01T05:41:17.187Z,1004.49
2023-03-01T05:42:17.189Z,1004.54
2023-03-01T05:43:17.145Z,1004.55
2023-03-01T05:44:17.120Z,1004.64
2023-03-01T05:45:17.141Z,1004.59
2023-03-01T05:46:17.197Z,1004.69
2023-03-01T05:47:17.125Z,1004.71
2023-03-01T05:48:17.120Z,1004.62
2023-03-01T05:49:17.060Z,1004.76
2023-03-01T05:50:18.089Z,1004.64
2023-03-01T05:51:17.097Z,1004.65
2023-03-01T05:52:17.078Z,1004.72
2023-03-01T05:53:17.069Z,1004.63
2023-03-01T05:54:17.100Z,1004.68
2023-03-01T05:55:17.086Z,1004.70
2023-03-01T05:56:17.080Z,1004.66
2023-03-01T05:57:17.076Z,1004.63
2023-03-01T05:58:17.061Z,1004.70
2023-03-01T05:59:17.030Z,1004.63
2023-03-01T06:00:17.051Z,1004.64
2023-03-01T06:01:17.036Z,1004.65
2023-03-01T06:02:17.028Z,1004.65
2023-03-01T06:03:16.999Z,1004.64
2023-03-01T06:04:17.011Z,1004.63
2023-03-01T06:05:17.050Z,1004.65
2023-03-01T06:06:17.048Z,1004.62
2023-03-01T06:07:17.056Z,1004.68
2023-03-01T06:08:16.976Z,1004.70
2023-03-01T06:09:16.979Z,1004.67
2023-03-01T06:10:16.959Z,1004.62
2023-03-01T06:11:17.013Z,1004.69
2023-03-01T06:12:16.979Z,1004.64
2023-03-01T06:13:16.956Z,1004.60
2023-03-01T06:14:16.914Z,1004.60
2023-03-01T06:15:19.226Z,1004.63
2023-03-01T06:16:17.015Z,1004.64
2023-03-01T06:17:16.923Z,1004.60
2023-03-01T06:18:16.941Z,1004.62
2023-03-01T06:19:16.915Z,1004.60
2023-03-01T06:20:17.785Z,1004.57
2023-03-01T06:21:16.919Z,1004.62
2023-03-01T06:22:16.905Z,1004.63
2023-03-01T06:23:16.910Z,1004.56
2023-03-01T06:24:17.043Z,1004.56
2023-03-01T06:25:16.904Z,1004.56
2023-03-01T06:26:16.878Z,1004.57
2023-03-01T06:27:16.856Z,1004.65
2023-03-01T06:28:16.845Z,1004.56
2023-03-01T06:29:16.846Z,1004.58
2023-03-01T06:30:16.862Z,1004.58
2023-03-01T06:31:16.905Z,1004.56
2023-03-01T06:32:16.918Z,1004.52
2023-03-01T06:33:16.842Z,1004.55
2023-03-01T06:34:16.885Z,1004.47
2023-03-01T06:35:16.812Z,1004.49
2023-03-01T06:36:16.823Z,1004.47
2023-03-01T06:37:16.775Z,1004.50
2023-03-01T06:38:16.898Z,1004.56
2023-03-01T06:39:16.777Z,1004.52
2023-03-01T06:40:17.082Z,1004.53
2023-03-01T06:41:16.781Z,1004.51
2023-03-01T06:42:16.756Z,1004.60
2023-03-01T06:43:17.736Z,1004.55
2023-03-01T06:44:16.775Z,1004.54
2023-03-01T06:45:16.745Z,1004.53
2023-03-01T06:46:16.845Z,1004.49
2023-03-01T06:47:16.754Z,1004.51
2023-03-01T06:48:16.769Z,1004.52
2023-03-01T06:49:16.713Z,1004.51
2023-03-01T06:50:16.767Z,1004.53
2023-03-01T06:51:16.713Z,1004.54
2023-03-01T06:52:17.714Z,1004.53
2023-03-01T06:53:16.703Z,1004.54
2023-03-01T06:54:16.704Z,1004.57
2023-03-01T06:55:16.676Z,1004.59
2023-03-01T06:56:17.718Z,1004.49
2023-03-01T06:57:16.743Z,1004.51
2023-03-01T06:58:16.643Z,1004.45
2023-03-01T06:59:16.663Z,1004.51
2023-03-01T07:00:16.637Z,1004.43
2023-03-01T07:01:16.762Z,1004.49
2023-03-01T07:02:16.623Z,1004.48
2023-03-01T07:03:16.657Z,1004.48
2023-03-01T07:04:16.607Z,1004.52
2023-03-01T07:05:16.692Z,1004.48
2023-03-01T07:06:16.616Z,1004.51
2023-03-01T07:07:16.604Z,1004.52
2023-03-01T07:08:16.600Z,1004.54
2023-03-01T07:09:16.626Z,1004.54
2023-03-01T07:10:16.614Z,1004.57
2023-03-01T07:11:16.586Z,1004.61
2023-03-01T07:12:16.572Z,1004.58
2023-03-01T07:13:16.533Z,1004.55
2023-03-01T07:14:16.538Z,1004.59
2023-03-01T07:15:16.548Z,1004.59
2023-03-01T07:16:16.581Z,1004.56
2023-03-01T07:17:16.544Z,1004.56
2023-03-01T07:18:16.502Z,1004.51
2023-03-01T07:19:16.505Z,1004.54
2023-03-01T07:20:16.505Z,1004.55
2023-03-01T07:21:16.502Z,1004.55
2023-03-01T07:22:16.529Z,1004.48
2023-03-01T07:23:16.492Z,1004.53
2023-03-01T07:24:16.495Z,1004.54
2023-03-01T07:25:16.554Z,1004.53
2023-03-01T07:26:16.476Z,1004.50
2023-03-01T07:27:16.459Z,1004.52
2023-03-01T07:28:21.488Z,1004.58
2023-03-01T07:29:16.457Z,1004.54
2023-03-01T07:30:16.465Z,1004.53
2023-03-01T07:31:16.454Z,1004.53
2023-03-01T07:32:16.499Z,1004.48
2023-03-01T07:33:16.514Z,1004.40
2023-03-01T07:34:16.416Z,1004.43
2023-03-01T07:35:16.409Z,1004.46
2023-03-01T07:36:16.414Z,1004.40
2023-03-01T07:37:16.378Z,1004.45
2023-03-01T07:38:16.413Z,1004.42
2023-03-01T07:39:18.058Z,1004.45
2023-03-01T07:40:16.373Z,1004.39
2023-03-01T07:41:16.361Z,1004.44
2023-03-01T07:42:16.361Z,1004.40
2023-03-01T07:43:16.356Z,1004.38
2023-03-01T07:44:16.376Z,1004.41
2023-03-01T07:45:16.349Z,1004.48
2023-03-01T07:46:16.375Z,1004.50
2023-03-01T07:47:16.322Z,1004.46
2023-03-01T07:48:16.309Z,1004.54
2023-03-01T07:49:16.333Z,1004.51
2023-03-01T07:50:17.161Z,1004.51
2023-03-01T07:51:16.297Z,1004.49
2023-03-01T07:52:16.272Z,1004.45
2023-03-01T07:53:16.282Z,1004.53
2023-03-01T07:54:17.284Z,1004.47
2023-03-01T07:55:16.276Z,1004.52
2023-03-01T07:56:16.292Z,1004.51
2023-03-01T07:57:16.277Z,1004.48
2023-03-01T07:58:16.326Z,1004.50
2023-03-01T07:59:16.249Z,1004.52
2023-03-01T08:00:16.239Z,1004.54
2023-03-01T08:01:16.290Z,1004.51
2023-03-01T08:02:16.229Z,1004.51
2023-03-01T08:03:17.081Z,1004.54
2023-03-01T08:04:16.198Z,1004.47
2023-03-01T08:05:16.220Z,1004.46
2023-03-01T08:06:16.216Z,1004.48
2023-03-01T08:07:16.199Z,1004.47
2023-03-01T08:08:17.492Z,1004.49
2023-03-01T08:09:16.188Z,1004.43
